Time;durP1;ratioP1;P1;durP2;ratioP2;P2;SDS_P1;SDS_P2;PMS_P1;PMS_P2;Temp;Humidity;BMP_temperature;BMP_pressure;BME280_temperature;BME280_humidity;BME280_pressure;Samples;Min_cycle;Max_cycle;Signal;HPM_P1;HPM_P2
2021/11/29 00:01:23;;;;;;;2.77;2.53;;;;;;;2.00;100.00;98951.16;5071526;28;20229;-78
2021/11/29 00:03:50;;;;;;;4.00;3.57;;;;;;;2.03;100.00;98955.97;5071363;28;20633;-78
2021/11/29 00:06:17;;;;;;;3.27;2.43;;;;;;;2.06;100.00;98959.97;5071248;28;20182;-78
2021/11/29 00:08:44;;;;;;;4.43;2.40;;;;;;;2.10;100.00;98963.69;5071116;28;20182;-78
2021/11/29 00:11:09;;;;;;;2.83;2.63;;;;;;;2.08;100.00;98968.56;5071243;28;20421;-78
2021/11/29 00:13:34;;;;;;;2.77;2.63;;;;;;;2.05;100.00;98966.44;5071059;28;20466;-79
2021/11/29 00:16:00;;;;;;;1.93;1.83;;;;;;;2.02;100.00;98975.09;5070655;28;20210;-78
2021/11/29 00:18:25;;;;;;;1.13;0.33;;;;;;;1.93;100.00;98979.56;5070325;28;20193;-78
2021/11/29 00:20:50;;;;;;;1.50;1.50;;;;;;;1.89;100.00;98967.75;5070815;28;20230;-79
2021/11/29 00:23:16;;;;;;;1.03;1.00;;;;;;;1.89;100.00;98978.53;5070918;28;20513;-78
2021/11/29 00:25:42;;;;;;;1.23;1.23;;;;;;;1.90;100.00;98977.44;5071185;28;20208;-78
2021/11/29 00:28:09;;;;;;;0.77;0.77;;;;;;;1.88;100.00;98977.72;5069842;28;20179;-78
2021/11/29 00:30:35;;;;;;;1.17;1.07;;;;;;;1.86;100.00;98984.47;5071251;28;20766;-78
2021/11/29 00:33:01;;;;;;;0.60;0.60;;;;;;;1.87;100.00;98983.38;5070803;28;20823;-79
2021/11/29 00:35:26;;;;;;;1.30;1.30;;;;;;;1.85;100.00;98974.81;5070754;28;20174;-78
2021/11/29 00:37:52;;;;;;;1.17;1.17;;;;;;;1.84;100.00;98978.59;5070888;28;20181;-78
2021/11/29 00:40:17;;;;;;;2.47;1.70;;;;;;;1.82;100.00;98984.25;5069675;28;20171;-78
2021/11/29 00:42:42;;;;;;;2.63;2.43;;;;;;;1.81;100.00;98971.09;5070957;28;20186;-80
2021/11/29 00:45:09;;;;;;;1.10;1.10;;;;;;;1.83;100.00;98985.88;5070579;28;20543;-78
2021/11/29 00:47:34;;;;;;;2.93;2.70;;;;;;;1.85;100.00;98983.69;5070923;28;20174;-80
2021/11/29 00:50:01;;;;;;;2.20;1.90;;;;;;;1.83;100.00;98985.06;5070510;28;20253;-78
2021/11/29 00:52:26;;;;;;;0.40;0.40;;;;;;;1.79;100.00;98982.97;5069385;28;20190;-79
2021/11/29 00:54:51;;;;;;;2.93;2.47;;;;;;;1.75;100.00;98981.94;5070745;28;20417;-78
2021/11/29 00:57:17;;;;;;;1.13;1.13;;;;;;;1.78;100.00;98980.56;5069344;28;20638;-78
2021/11/29 00:59:46;;;;;;;0.77;0.77;;;;;;;1.74;100.00;98983.03;5070779;28;20198;-78
2021/11/29 01:02:16;;;;;;;1.17;1.07;;;;;;;1.71;100.00;98988.16;5070517;28;20689;-78
2021/11/29 01:04:42;;;;;;;0.60;0.60;;;;;;;1.72;100.00;98989.78;5070340;28;20417;-78
2021/11/29 01:07:08;;;;;;;1.17;1.13;;;;;;;1.70;100.00;98982.00;5070532;28;20413;-78
2021/11/29 01:09:34;;;;;;;0.93;0.87;;;;;;;1.69;100.00;98983.06;5070439;28;20193;-78
2021/11/29 01:12:00;;;;;;;0.67;0.67;;;;;;;1.67;100.00;98985.25;5070479;28;20171;-78
2021/11/29 01:14:25;;;;;;;1.73;1.63;;;;;;;1.68;100.00;98994.13;5070354;28;20815;-77
2021/11/29 01:16:50;;;;;;;1.27;1.17;;;;;;;1.68;100.00;98991.44;5070416;28;20202;-78
2021/11/29 01:19:16;;;;;;;0.30;0.30;;;;;;;1.64;100.00;98985.84;5070450;28;20215;-78
2021/11/29 01:21:41;;;;;;;0.63;0.63;;;;;;;1.64;100.00;98980.47;5070599;28;20220;-78
2021/11/29 01:24:07;;;;;;;0.43;0.43;;;;;;;1.62;100.00;98981.84;5070549;28;20653;-78
2021/11/29 01:26:32;;;;;;;1.07;0.97;;;;;;;1.58;100.00;98984.28;5070210;28;20210;-78
2021/11/29 01:28:58;;;;;;;0.80;0.77;;;;;;;1.59;100.00;98990.47;5070857;28;20167;-77
2021/11/29 01:31:23;;;;;;;1.27;1.17;;;;;;;1.61;100.00;98989.13;5074285;28;20710;-78
2021/11/29 01:33:48;;;;;;;0.47;0.20;;;;;;;1.63;100.00;98988.81;5072786;28;20202;-78
2021/11/29 01:36:14;;;;;;;0.87;0.87;;;;;;;1.64;100.00;98996.59;5074241;28;20182;-77
2021/11/29 01:38:39;;;;;;;0.60;0.60;;;;;;;1.66;100.00;98993.63;5074495;28;20522;-77
2021/11/29 01:41:05;;;;;;;1.50;1.40;;;;;;;1.66;100.00;98994.44;5074266;28;20170;-78
2021/11/29 01:43:31;;;;;;;1.20;1.20;;;;;;;1.65;100.00;98998.22;5074508;28;20171;-78
2021/11/29 01:45:56;;;;;;;1.03;0.97;;;;;;;1.65;100.00;99000.09;5074054;28;20340;-79
2021/11/29 01:48:24;;;;;;;2.30;1.37;;;;;;;1.64;100.00;98999.31;5074142;28;20589;-78
2021/11/29 01:50:53;;;;;;;1.33;1.23;;;;;;;1.64;100.00;99004.69;5073961;28;20169;-78
2021/11/29 01:53:20;;;;;;;0.50;0.50;;;;;;;1.63;100.00;99000.41;5073750;28;20986;-77
2021/11/29 01:55:47;;;;;;;0.80;0.80;;;;;;;1.66;100.00;98997.13;5073702;28;20412;-78
2021/11/29 01:58:14;;;;;;;1.00;1.00;;;;;;;1.61;100.00;98997.19;5073635;28;20412;-78
2021/11/29 02:00:45;;;;;;;0.03;0.03;;;;;;;1.62;100.00;99003.38;5073824;28;20746;-78
2021/11/29 02:03:11;;;;;;;1.70;1.00;;;;;;;1.60;100.00;98997.47;5072424;28;20842;-78
2021/11/29 02:05:37;;;;;;;1.53;1.43;;;;;;;1.58;100.00;98997.75;5073617;28;20516;-78
2021/11/29 02:08:03;;;;;;;1.17;1.17;;;;;;;1.57;100.00;98998.84;5073560;28;20508;-78
2021/11/29 02:10:29;;;;;;;0.67;0.67;;;;;;;1.56;100.00;98994.53;5073594;28;20178;-78
2021/11/29 02:12:55;;;;;;;0.47;0.37;;;;;;;1.54;100.00;98994.03;5073464;28;20723;-78
2021/11/29 02:15:21;;;;;;;0.90;0.77;;;;;;;1.54;100.00;98995.94;5073409;28;20425;-78
2021/11/29 02:17:47;;;;;;;0.80;0.80;;;;;;;1.56;100.00;98999.13;5073473;28;20189;-78
2021/11/29 02:20:15;;;;;;;1.47;1.40;;;;;;;1.57;100.00;98998.84;5073416;28;20183;-78
2021/11/29 02:22:43;;;;;;;0.83;0.83;;;;;;;1.59;100.00;99009.31;5073240;28;20239;-78
2021/11/29 02:25:10;;;;;;;0.80;0.80;;;;;;;1.56;100.00;99008.00;5073277;28;20420;-78
2021/11/29 02:27:36;;;;;;;2.20;2.07;;;;;;;1.58;100.00;99005.03;5073220;28;20170;-78
2021/11/29 02:30:04;;;;;;;1.67;1.43;;;;;;;1.57;100.00;99006.91;5073267;28;20421;-78
2021/11/29 02:32:29;;;;;;;1.87;1.33;;;;;;;1.55;100.00;99014.47;5073420;28;20189;-78
2021/11/29 02:34:55;;;;;;;1.30;1.30;;;;;;;1.54;100.00;99012.06;5071766;28;20417;-78
2021/11/29 02:37:20;;;;;;;1.67;1.57;;;;;;;1.54;100.00;99012.88;5073351;28;20190;-78
2021/11/29 02:39:46;;;;;;;0.90;0.90;;;;;;;1.52;100.00;99008.88;5073099;28;20167;-78
2021/11/29 02:42:13;;;;;;;1.53;1.43;;;;;;;1.49;100.00;99015.63;5071710;28;20182;-79
2021/11/29 02:44:40;;;;;;;1.83;1.73;;;;;;;1.48;100.00;99011.34;5071648;28;20210;-78
2021/11/29 02:47:06;;;;;;;1.03;0.97;;;;;;;1.50;100.00;99017.22;5072914;28;20447;-78
2021/11/29 02:49:32;;;;;;;1.50;1.37;;;;;;;1.51;100.00;99018.84;5072851;28;20269;-78
2021/11/29 02:52:00;;;;;;;2.20;1.90;;;;;;;1.51;100.00;99028.81;5072554;28;20198;-78
2021/11/29 02:54:29;;;;;;;1.23;1.07;;;;;;;1.55;100.00;99024.44;5072844;28;20217;-78
2021/11/29 02:57:07;;;;;;;0.60;0.47;;;;;;;1.56;100.00;99026.84;5072804;28;20785;-78
2021/11/29 02:59:35;;;;;;;1.50;1.40;;;;;;;1.56;100.00;99029.53;5072911;28;20441;-78
2021/11/29 03:02:04;;;;;;;2.03;1.93;;;;;;;1.58;100.00;99030.03;5072801;28;20503;-79
2021/11/29 03:04:31;;;;;;;1.40;1.30;;;;;;;1.59;100.00;99025.47;5072878;28;20437;-78
2021/11/29 03:06:57;;;;;;;1.23;1.13;;;;;;;1.61;100.00;99036.78;5071427;28;20224;-78
2021/11/29 03:09:23;;;;;;;1.83;1.73;;;;;;;1.60;100.00;99035.97;5072655;28;20182;-78
2021/11/29 03:11:50;;;;;;;2.40;1.57;;;;;;;1.60;100.00;99041.34;5072548;28;20470;-78
2021/11/29 03:14:16;;;;;;;2.00;1.87;;;;;;;1.61;100.00;99044.84;5072414;28;21034;-78
2021/11/29 03:16:42;;;;;;;4.43;2.13;;;;;;;1.64;100.00;99039.69;5072359;28;20409;-78
2021/11/29 03:19:07;;;;;;;2.43;1.27;;;;;;;1.66;100.00;99042.88;5072785;28;20162;-78
2021/11/29 03:21:33;;;;;;;2.10;1.90;;;;;;;1.68;100.00;99051.47;5071321;28;20178;-78
2021/11/29 03:24:01;;;;;;;2.43;2.23;;;;;;;1.69;100.00;99053.06;5072734;28;20617;-79
2021/11/29 03:26:28;;;;;;;1.70;1.63;;;;;;;1.65;100.00;99033.22;5073174;28;20171;-78
2021/11/29 03:29:15;;;;;;;1.67;1.17;;;;;;;1.64;100.00;99039.69;5080167;28;20618;-79
2021/11/29 03:31:42;;;;;;;2.43;1.93;;;;;;;1.65;100.00;99045.88;5081779;28;20178;-78
2021/11/29 03:34:10;;;;;;;1.03;1.03;;;;;;;1.67;100.00;99055.25;5073340;28;20463;-79
2021/11/29 03:36:38;;;;;;;2.53;2.33;;;;;;;1.69;100.00;99057.66;5071061;28;20421;-79
2021/11/29 03:39:07;;;;;;;3.30;3.00;;;;;;;1.71;100.00;99058.97;5071922;28;20210;-79
2021/11/29 03:41:33;;;;;;;2.03;1.93;;;;;;;1.74;100.00;99055.72;5071783;28;20390;-79
2021/11/29 03:43:58;;;;;;;1.47;1.27;;;;;;;1.72;100.00;99059.75;5070514;28;20235;-79
2021/11/29 03:46:24;;;;;;;2.93;1.50;;;;;;;1.73;100.00;99053.28;5071721;28;20273;-78
2021/11/29 03:48:49;;;;;;;1.60;1.50;;;;;;;1.75;100.00;99057.31;5071630;28;20232;-79
2021/11/29 03:51:15;;;;;;;1.20;1.07;;;;;;;1.76;100.00;99058.13;5071420;28;20773;-78
2021/11/29 03:53:40;;;;;;;1.77;1.00;;;;;;;1.77;100.00;99062.41;5071250;28;20202;-78
2021/11/29 03:56:06;;;;;;;1.20;1.17;;;;;;;1.79;100.00;99065.63;5071263;28;20570;-79
2021/11/29 03:58:32;;;;;;;0.60;0.60;;;;;;;1.80;100.00;99059.16;5071566;28;20515;-79
2021/11/29 04:00:57;;;;;;;1.30;1.20;;;;;;;1.80;100.00;99069.91;5071377;28;20206;-79
2021/11/29 04:03:23;;;;;;;1.30;1.20;;;;;;;1.74;100.00;99066.50;5071379;28;20186;-78
2021/11/29 04:05:48;;;;;;;1.13;1.03;;;;;;;1.71;100.00;99072.44;5071293;28;20435;-79
2021/11/29 04:08:14;;;;;;;1.00;0.90;;;;;;;1.63;100.00;99056.91;5069919;28;20179;-79
2021/11/29 04:10:40;;;;;;;0.60;0.40;;;;;;;1.62;100.00;99065.28;5071142;28;20179;-78
2021/11/29 04:13:05;;;;;;;0.17;0.17;;;;;;;1.61;100.00;99077.13;5071124;28;20202;-78
2021/11/29 04:15:31;;;;;;;1.40;1.30;;;;;;;1.59;100.00;99074.75;5071188;28;20206;-80
2021/11/29 04:17:56;;;;;;;0.60;0.43;;;;;;;1.57;100.00;99078.78;5071327;28;20626;-78
2021/11/29 04:20:22;;;;;;;1.70;1.60;;;;;;;1.55;100.00;99079.06;5071180;28;20265;-78
2021/11/29 04:22:48;;;;;;;1.97;1.87;;;;;;;1.55;100.00;99075.56;5071204;28;20644;-78
2021/11/29 04:25:17;;;;;;;1.57;1.47;;;;;;;1.55;100.00;99075.56;5070850;28;20170;-78
2021/11/29 04:27:44;;;;;;;1.07;0.97;;;;;;;1.55;100.00;99080.97;5071149;28;20871;-78
2021/11/29 04:30:18;;;;;;;1.40;1.33;;;;;;;1.56;100.00;99090.63;5071085;28;20428;-80
2021/11/29 04:32:48;;;;;;;1.80;1.70;;;;;;;1.56;100.00;99085.25;5071104;28;20405;-78
2021/11/29 04:35:14;;;;;;;4.20;1.50;;;;;;;1.56;100.00;99096.00;5070796;28;20425;-78
2021/11/29 04:37:40;;;;;;;1.27;1.17;;;;;;;1.56;100.00;99093.31;5070981;28;20482;-78
2021/11/29 04:40:06;;;;;;;1.97;1.87;;;;;;;1.57;100.00;99097.63;5070895;28;20425;-79
2021/11/29 04:42:31;;;;;;;0.13;0.13;;;;;;;1.57;100.00;99108.38;5070885;28;20220;-79
2021/11/29 04:44:57;;;;;;;1.07;1.07;;;;;;;1.55;100.00;99100.59;5070636;28;20891;-78
2021/11/29 04:47:23;;;;;;;1.33;1.23;;;;;;;1.59;100.00;99108.91;5070830;28;20179;-78
2021/11/29 04:49:49;;;;;;;1.63;1.53;;;;;;;1.61;100.00;99106.75;5069477;28;20177;-78
2021/11/29 04:52:14;;;;;;;3.23;2.87;;;;;;;1.62;100.00;99106.47;5069350;28;20183;-78
2021/11/29 04:54:40;;;;;;;2.57;2.37;;;;;;;1.62;100.00;99113.72;5070529;28;20217;-78
2021/11/29 04:57:05;;;;;;;2.27;2.07;;;;;;;1.62;100.00;99116.44;5071109;28;20749;-78
2021/11/29 04:59:31;;;;;;;2.67;2.37;;;;;;;1.68;100.00;99120.66;5070812;28;20198;-78
2021/11/29 05:01:56;;;;;;;2.17;1.90;;;;;;;1.67;100.00;99122.53;5069369;28;20182;-78
2021/11/29 05:04:22;;;;;;;2.17;1.97;;;;;;;1.75;100.00;99126.53;5070373;28;20187;-78
2021/11/29 05:06:47;;;;;;;2.40;2.20;;;;;;;1.78;100.00;99131.31;5074669;28;20175;-78
2021/11/29 05:09:13;;;;;;;4.40;2.50;;;;;;;1.80;100.00;99139.91;5074446;28;20189;-78
2021/11/29 05:11:39;;;;;;;2.83;2.63;;;;;;;1.84;100.00;99134.75;5074606;28;20235;-78
2021/11/29 05:14:05;;;;;;;2.57;2.37;;;;;;;1.89;100.00;99140.09;5074712;28;20236;-78
2021/11/29 05:16:31;;;;;;;2.73;2.53;;;;;;;1.89;100.00;99140.91;5073344;28;20178;-78
2021/11/29 05:18:57;;;;;;;1.93;1.83;;;;;;;1.83;100.00;99144.72;5073309;28;20661;-78
2021/11/29 05:21:23;;;;;;;1.53;1.43;;;;;;;1.81;100.00;99140.72;5074560;28;20324;-78
2021/11/29 05:23:48;;;;;;;1.83;1.73;;;;;;;1.82;100.00;99147.72;5075078;28;20174;-79
2021/11/29 05:26:19;;;;;;;2.77;2.00;;;;;;;1.77;100.00;99149.38;5074340;28;20546;-78
2021/11/29 05:28:44;;;;;;;2.07;1.87;;;;;;;1.75;100.00;99156.94;5074770;28;20248;-78
2021/11/29 05:31:09;;;;;;;1.67;1.47;;;;;;;1.74;100.00;99158.03;5074307;28;20268;-78
2021/11/29 05:33:35;;;;;;;1.23;1.10;;;;;;;1.72;100.00;99167.44;5074255;28;20206;-78
2021/11/29 05:36:00;;;;;;;2.00;1.90;;;;;;;1.70;100.00;99162.34;5074054;28;20183;-78
2021/11/29 05:38:26;;;;;;;1.33;1.23;;;;;;;1.69;100.00;99171.50;5074148;28;20651;-78
2021/11/29 05:40:51;;;;;;;2.20;2.00;;;;;;;1.70;100.00;99175.00;5072926;28;20178;-78
2021/11/29 05:43:16;;;;;;;2.60;1.67;;;;;;;1.67;100.00;99168.31;5072844;28;20179;-78
2021/11/29 05:45:42;;;;;;;2.70;2.50;;;;;;;1.64;100.00;99171.56;5073979;28;20202;-78
2021/11/29 05:48:07;;;;;;;1.77;1.67;;;;;;;1.64;100.00;99170.78;5074048;28;20179;-78
2021/11/29 05:50:32;;;;;;;2.40;2.20;;;;;;;1.67;100.00;99179.06;5073581;28;20647;-78
2021/11/29 05:52:58;;;;;;;0.70;0.70;;;;;;;1.65;100.00;99181.25;5073749;28;20205;-78
2021/11/29 05:55:23;;;;;;;2.17;1.60;;;;;;;1.63;100.00;99186.13;5073676;28;20258;-78
2021/11/29 05:57:49;;;;;;;2.13;1.53;;;;;;;1.62;100.00;99189.91;5073776;28;20540;-80
2021/11/29 06:00:17;;;;;;;2.00;1.83;;;;;;;1.61;100.00;99184.81;5074123;28;20174;-78
2021/11/29 06:02:43;;;;;;;5.53;1.60;;;;;;;1.58;100.00;99190.72;5073683;28;20274;-78
2021/11/29 06:05:10;;;;;;;1.87;1.77;;;;;;;1.56;100.00;99190.22;5073467;28;20206;-77
2021/11/29 06:07:36;;;;;;;2.17;2.00;;;;;;;1.55;100.00;99191.31;5073522;28;20253;-78
2021/11/29 06:10:04;;;;;;;2.73;2.20;;;;;;;1.57;100.00;99207.97;5073471;28;20523;-78
2021/11/29 06:12:29;;;;;;;2.30;2.10;;;;;;;1.56;100.00;99207.16;5073372;28;20186;-78
2021/11/29 06:14:55;;;;;;;1.57;1.47;;;;;;;1.57;100.00;99211.47;5072688;28;20653;-78
2021/11/29 06:17:20;;;;;;;2.57;2.23;;;;;;;1.59;100.00;99217.38;5073881;28;20183;-78
2021/11/29 06:19:46;;;;;;;2.83;2.63;;;;;;;1.64;100.00;99213.84;5073330;28;20198;-77
2021/11/29 06:22:11;;;;;;;2.10;2.00;;;;;;;1.67;100.00;99224.03;5071972;28;20174;-79
2021/11/29 06:24:36;;;;;;;1.83;1.73;;;;;;;1.67;100.00;99227.53;5073151;28;20266;-78
2021/11/29 06:27:02;;;;;;;1.90;1.80;;;;;;;1.63;100.00;99228.38;5073570;28;20175;-78
2021/11/29 06:29:27;;;;;;;1.87;1.77;;;;;;;1.64;100.00;99232.69;5073047;28;20236;-78
2021/11/29 06:31:53;;;;;;;1.23;1.13;;;;;;;1.62;100.00;99230.28;5073064;28;20182;-78
2021/11/29 06:34:18;;;;;;;1.40;1.30;;;;;;;1.61;100.00;99230.56;5072993;28;20213;-78
2021/11/29 06:36:43;;;;;;;3.23;3.03;;;;;;;1.63;100.00;99236.47;5071651;28;20178;-78
2021/11/29 06:39:09;;;;;;;3.67;2.77;;;;;;;1.63;100.00;99242.66;5073477;28;20258;-78
2021/11/29 06:41:34;;;;;;;1.13;1.10;;;;;;;1.62;100.00;99246.44;5072952;28;20174;-78
2021/11/29 06:43:59;;;;;;;2.80;1.90;;;;;;;1.60;100.00;99242.41;5072752;28;20396;-79
2021/11/29 06:46:25;;;;;;;2.50;1.77;;;;;;;1.62;100.00;99248.31;5072763;28;20589;-76
2021/11/29 06:48:50;;;;;;;3.27;2.97;;;;;;;1.61;100.00;99252.91;5071603;28;20277;-78
2021/11/29 06:51:16;;;;;;;3.27;2.27;;;;;;;1.59;100.00;99257.75;5072594;28;20182;-77
2021/11/29 06:53:42;;;;;;;1.73;1.63;;;;;;;1.57;100.00;99261.78;5072731;28;20668;-76
2021/11/29 06:56:08;;;;;;;1.40;1.10;;;;;;;1.58;100.00;99271.47;5072346;28;20417;-76
2021/11/29 06:58:36;;;;;;;2.40;2.20;;;;;;;1.55;100.00;99264.78;5072628;28;20520;-76
2021/11/29 07:01:03;;;;;;;2.00;1.57;;;;;;;1.55;100.00;99280.91;5072658;28;20178;-76
2021/11/29 07:03:28;;;;;;;2.97;2.47;;;;;;;1.55;100.00;99282.81;5072604;28;20428;-75
2021/11/29 07:05:53;;;;;;;5.03;2.27;;;;;;;1.56;100.00;99277.16;5072332;28;20830;-76
2021/11/29 07:08:19;;;;;;;3.97;1.97;;;;;;;1.55;100.00;99283.63;5072435;28;20672;-76
2021/11/29 07:10:46;;;;;;;1.37;1.27;;;;;;;1.53;100.00;99279.59;5072335;28;20253;-78
2021/11/29 07:13:13;;;;;;;3.30;2.83;;;;;;;1.49;100.00;99277.47;5072264;28;20251;-78
2021/11/29 07:15:40;;;;;;;4.37;3.10;;;;;;;1.44;100.00;99280.19;5072202;28;20419;-76
2021/11/29 07:18:06;;;;;;;0.43;0.43;;;;;;;1.42;100.00;99273.47;5072237;28;20429;-78
2021/11/29 07:20:32;;;;;;;2.50;2.33;;;;;;;1.44;100.00;99290.16;5072020;28;20409;-78
2021/11/29 07:22:58;;;;;;;1.57;1.47;;;;;;;1.43;100.00;99296.63;5072029;28;20512;-77
2021/11/29 07:25:23;;;;;;;1.10;1.00;;;;;;;1.42;100.00;99293.13;5071995;28;20691;-78
2021/11/29 07:27:49;;;;;;;0.80;0.80;;;;;;;1.42;100.00;99306.56;5071653;28;20186;-78
2021/11/29 07:30:17;;;;;;;2.17;2.07;;;;;;;1.38;100.00;99304.72;5072111;28;20175;-79
2021/11/29 07:32:42;;;;;;;0.50;0.50;;;;;;;1.33;100.00;99302.88;5071791;28;20174;-77
2021/11/29 07:35:09;;;;;;;1.90;1.80;;;;;;;1.34;100.00;99317.13;5071632;28;20419;-77
2021/11/29 07:37:36;;;;;;;0.93;0.83;;;;;;;1.35;100.00;99324.13;5071957;28;20170;-77
2021/11/29 07:40:03;;;;;;;2.80;2.60;;;;;;;1.36;100.00;99328.41;5071630;28;20778;-77
2021/11/29 07:42:29;;;;;;;2.57;2.00;;;;;;;1.41;100.00;99331.88;5071715;28;20931;-77
2021/11/29 07:44:55;;;;;;;3.27;2.70;;;;;;;1.44;100.00;99336.69;5071411;28;20504;-76
2021/11/29 07:47:21;;;;;;;2.63;2.33;;;;;;;1.54;100.00;99341.22;5071544;28;20500;-77
2021/11/29 07:49:47;;;;;;;1.60;1.50;;;;;;;1.52;100.00;99348.78;5071013;28;20650;-78
2021/11/29 07:52:14;;;;;;;1.50;1.40;;;;;;;1.50;100.00;99348.25;5069835;28;20474;-77
2021/11/29 07:54:43;;;;;;;3.27;3.07;;;;;;;1.50;100.00;99348.25;5071143;28;20198;-77
2021/11/29 07:57:10;;;;;;;1.20;1.10;;;;;;;1.51;100.00;99365.19;5071662;28;20440;-77
2021/11/29 07:59:36;;;;;;;1.97;1.87;;;;;;;1.48;100.00;99359.31;5071702;28;20437;-77
2021/11/29 08:02:02;;;;;;;4.53;1.87;;;;;;;1.47;100.00;99365.75;5071338;28;20532;-77
2021/11/29 08:04:27;;;;;;;1.60;1.47;;;;;;;1.47;100.00;99360.38;5071138;28;20174;-77
2021/11/29 08:06:53;;;;;;;2.77;2.50;;;;;;;1.49;100.00;99360.09;5071197;28;20174;-77
2021/11/29 08:09:18;;;;;;;1.03;0.93;;;;;;;1.53;100.00;99366.53;5071397;28;20196;-77
2021/11/29 08:11:46;;;;;;;2.70;2.50;;;;;;;1.54;100.00;99370.81;5071058;28;20178;-78
2021/11/29 08:14:13;;;;;;;2.30;2.20;;;;;;;1.51;100.00;99378.66;5069675;28;20705;-77
2021/11/29 08:16:38;;;;;;;1.43;1.33;;;;;;;1.45;100.00;99380.59;5071302;28;20449;-78
2021/11/29 08:19:04;;;;;;;4.77;3.07;;;;;;;1.45;100.00;99369.81;5070918;28;20657;-77
2021/11/29 08:21:29;;;;;;;2.37;2.00;;;;;;;1.47;100.00;99379.22;5070993;28;20174;-78
2021/11/29 08:23:54;;;;;;;2.63;2.40;;;;;;;1.50;100.00;99385.94;5071010;28;20175;-78
2021/11/29 08:26:20;;;;;;;4.97;3.27;;;;;;;1.55;100.00;99385.88;5070792;28;20202;-84
2021/11/29 08:28:45;;;;;;;4.60;2.50;;;;;;;1.59;100.00;99396.91;5070953;28;20223;-82
2021/11/29 08:31:11;;;;;;;2.53;2.33;;;;;;;1.55;100.00;99391.28;5071339;28;20208;-83
2021/11/29 08:33:36;;;;;;;2.43;2.23;;;;;;;1.55;100.00;99393.97;5070828;28;20620;-77
2021/11/29 08:36:02;;;;;;;2.67;2.33;;;;;;;1.55;100.00;99396.66;5070585;28;20262;-79
2021/11/29 08:38:28;;;;;;;1.53;1.40;;;;;;;1.46;100.00;99396.44;5069477;28;20190;-79
2021/11/29 08:40:53;;;;;;;2.47;1.77;;;;;;;1.47;100.00;99400.75;5069345;28;20447;-78
2021/11/29 08:43:19;;;;;;;1.47;1.30;;;;;;;1.48;100.00;99401.56;5071199;28;20675;-78
2021/11/29 08:45:48;;;;;;;2.47;2.27;;;;;;;1.48;100.00;99404.25;5069180;28;20672;-78
2021/11/29 08:48:13;;;;;;;2.50;2.30;;;;;;;1.50;100.00;99404.78;5070627;28;20171;-79
2021/11/29 08:50:41;;;;;;;3.00;2.77;;;;;;;1.54;100.00;99407.69;5070596;28;20572;-78
2021/11/29 08:53:13;;;;;;;2.73;2.50;;;;;;;1.58;100.00;99412.25;5070491;28;20673;-77
2021/11/29 08:55:39;;;;;;;2.47;2.30;;;;;;;1.61;100.00;99419.00;5070775;28;20615;-77
2021/11/29 08:58:06;;;;;;;6.67;4.03;;;;;;;1.65;100.00;99434.28;5070458;28;20448;-77
2021/11/29 09:00:33;;;;;;;3.33;2.13;;;;;;;1.69;100.00;99435.34;5067153;28;20186;-78
2021/11/29 09:03:00;;;;;;;2.10;1.90;;;;;;;1.71;100.00;99441.25;5068853;28;20202;-76
2021/11/29 09:05:26;;;;;;;0.77;0.77;;;;;;;1.68;100.00;99439.13;5070037;28;20571;-77
2021/11/29 09:07:52;;;;;;;4.90;3.63;;;;;;;1.67;100.00;99437.50;5070595;28;20176;-78
2021/11/29 09:10:18;;;;;;;4.83;3.80;;;;;;;1.69;100.00;99435.34;5069035;28;20643;-77
2021/11/29 09:12:44;;;;;;;6.73;2.97;;;;;;;1.77;100.00;99455.50;5070238;28;20417;-77
2021/11/29 09:15:13;;;;;;;4.27;3.87;;;;;;;1.84;100.00;99455.19;5068849;28;20594;-78
2021/11/29 09:17:39;;;;;;;2.87;2.67;;;;;;;1.87;100.00;99460.00;5070049;28;20429;-78
2021/11/29 09:20:07;;;;;;;4.17;3.77;;;;;;;1.82;100.00;99457.34;5070189;28;20179;-77
2021/11/29 09:22:32;;;;;;;4.03;3.60;;;;;;;1.83;100.00;99461.66;5070192;28;20175;-76
2021/11/29 09:25:00;;;;;;;4.07;3.67;;;;;;;1.86;100.00;99461.09;5070005;28;20669;-77
2021/11/29 09:27:26;;;;;;;3.17;2.17;;;;;;;1.90;100.00;99471.06;5070535;28;20171;-77
2021/11/29 09:29:51;;;;;;;4.17;3.27;;;;;;;1.89;100.00;99466.75;5070022;28;20171;-77
2021/11/29 09:32:18;;;;;;;2.50;2.30;;;;;;;1.88;100.00;99467.84;5070207;28;20420;-76
2021/11/29 09:34:43;;;;;;;4.53;3.43;;;;;;;1.89;100.00;99480.22;5069976;28;20264;-78
2021/11/29 09:37:09;;;;;;;3.70;3.33;;;;;;;1.99;100.00;99488.22;5070277;28;20576;-77
2021/11/29 09:39:35;;;;;;;6.03;3.13;;;;;;;2.01;100.00;99490.63;5070174;28;20181;-78
2021/11/29 09:42:01;;;;;;;2.63;2.23;;;;;;;1.94;100.00;99487.47;5068575;28;20682;-77
2021/11/29 09:44:26;;;;;;;4.77;3.63;;;;;;;1.95;100.00;99492.56;5070147;28;20185;-77
2021/11/29 09:46:52;;;;;;;4.20;3.10;;;;;;;1.95;100.00;99489.06;5069964;28;20277;-78
2021/11/29 09:49:17;;;;;;;3.80;3.17;;;;;;;1.98;100.00;99489.31;5069871;28;20178;-78
2021/11/29 09:51:42;;;;;;;4.43;2.57;;;;;;;2.01;100.00;99490.63;5073217;28;20210;-79
2021/11/29 09:54:08;;;;;;;2.33;2.00;;;;;;;2.02;100.00;99492.25;5073573;28;20206;-78
2021/11/29 09:56:35;;;;;;;1.50;1.40;;;;;;;2.00;100.00;99494.41;5073493;28;20198;-79
2021/11/29 09:59:01;;;;;;;6.43;2.23;;;;;;;1.92;100.00;99495.00;5072312;28;20178;-79
2021/11/29 10:01:27;;;;;;;4.63;4.10;;;;;;;1.88;100.00;99492.06;5072074;28;20185;-78
2021/11/29 10:03:53;;;;;;;3.97;3.67;;;;;;;1.91;100.00;99507.69;5073441;28;20261;-79
2021/11/29 10:06:18;;;;;;;3.07;2.77;;;;;;;1.91;100.00;99504.19;5071712;28;20425;-78
2021/11/29 10:08:43;;;;;;;3.50;3.20;;;;;;;1.89;100.00;99509.84;5073142;28;20195;-79
2021/11/29 10:11:12;;;;;;;2.80;2.60;;;;;;;1.93;100.00;99515.47;5071998;28;20269;-77
2021/11/29 10:14:02;;;;;;;3.70;3.27;;;;;;;1.93;100.00;99510.09;5073298;28;20416;-78
2021/11/29 10:16:43;;;;;;;3.53;3.17;;;;;;;1.96;100.00;99509.53;5073322;28;20604;-78
2021/11/29 10:19:28;;;;;;;6.20;3.30;;;;;;;2.00;100.00;99518.66;5077645;28;20219;-79
2021/11/29 10:22:11;;;;;;;5.30;4.53;;;;;;;2.01;100.00;99517.56;5062645;28;20770;-79
2021/11/29 10:24:36;;;;;;;3.37;1.67;;;;;;;2.01;100.00;99523.75;5072994;28;20178;-78
2021/11/29 10:27:02;;;;;;;2.57;2.37;;;;;;;2.05;100.00;99524.84;5072789;28;20178;-78
2021/11/29 10:29:27;;;;;;;5.10;4.43;;;;;;;1.99;100.00;99531.31;5072805;28;20249;-78
2021/11/29 10:31:56;;;;;;;2.97;2.47;;;;;;;2.03;100.00;99529.72;5071585;28;20185;-78
2021/11/29 10:34:27;;;;;;;6.67;4.60;;;;;;;2.09;100.00;99541.25;5072719;28;20206;-77
2021/11/29 10:37:10;;;;;;;4.37;3.77;;;;;;;2.08;100.00;99543.13;5072670;28;20175;-78
2021/11/29 10:39:38;;;;;;;5.20;3.97;;;;;;;2.12;100.00;99545.28;5072792;28;20579;-77
2021/11/29 10:42:06;;;;;;;2.73;1.80;;;;;;;2.18;100.00;99542.28;5072550;28;20515;-78
2021/11/29 10:44:34;;;;;;;4.27;3.80;;;;;;;2.21;100.00;99544.41;5072644;28;20436;-78
2021/11/29 10:47:04;;;;;;;7.43;3.43;;;;;;;2.24;100.00;99551.13;5072385;28;20224;-78
2021/11/29 10:49:33;;;;;;;4.30;3.83;;;;;;;2.30;100.00;99550.81;5072503;28;20785;-78
2021/11/29 10:52:00;;;;;;;2.83;2.63;;;;;;;2.28;100.00;99552.19;5072210;28;20510;-78
2021/11/29 10:54:28;;;;;;;4.07;3.40;;;;;;;2.23;100.00;99553.03;5072553;28;20206;-78
2021/11/29 10:56:57;;;;;;;2.93;2.73;;;;;;;2.23;100.00;99550.34;5072188;28;20412;-78
2021/11/29 10:59:25;;;;;;;2.70;2.50;;;;;;;2.25;100.00;99547.34;5072235;28;20175;-78
2021/11/29 11:02:01;;;;;;;4.60;2.37;;;;;;;2.20;100.00;99534.72;5071009;28;20399;-78
2021/11/29 11:04:29;;;;;;;2.43;2.23;;;;;;;2.16;100.00;99554.41;5070873;28;20514;-78
2021/11/29 11:06:59;;;;;;;3.37;3.10;;;;;;;2.18;100.00;99541.47;5072084;28;20527;-78
2021/11/29 11:09:28;;;;;;;2.60;2.40;;;;;;;2.18;100.00;99552.25;5071991;28;20248;-78
2021/11/29 11:11:56;;;;;;;2.53;1.43;;;;;;;2.22;100.00;99551.41;5072316;28;20213;-78
2021/11/29 11:14:28;;;;;;;1.73;1.63;;;;;;;2.22;100.00;99554.09;5071892;28;20209;-78
2021/11/29 11:16:58;;;;;;;2.50;2.03;;;;;;;2.22;100.00;99550.63;5071775;28;20181;-77
2021/11/29 11:19:35;;;;;;;3.47;3.23;;;;;;;2.22;100.00;99551.41;5070576;28;20502;-77
2021/11/29 11:22:02;;;;;;;3.40;2.90;;;;;;;2.24;100.00;99559.22;5072122;28;20441;-78
2021/11/29 11:24:33;;;;;;;2.43;2.13;;;;;;;2.20;100.00;99564.38;5071812;28;20166;-78
2021/11/29 11:27:00;;;;;;;3.87;3.47;;;;;;;2.22;100.00;99564.88;5071735;28;20228;-78
2021/11/29 11:29:56;;;;;;;5.17;3.40;;;;;;;2.28;100.00;99557.56;5071686;28;20420;-78
2021/11/29 11:32:27;;;;;;;4.37;3.13;;;;;;;2.23;100.00;99568.38;5042880;28;20198;-77